createdAt,value
2023-04-18T00:01:32.770Z,76
2023-04-18T00:04:04.849Z,77
2023-04-18T00:06:35.262Z,76
2023-04-18T00:09:05.901Z,77
2023-04-18T00:11:35.946Z,76
2023-04-18T00:14:06.158Z,76
2023-04-18T00:16:36.970Z,77
2023-04-18T00:19:07.715Z,76
2023-04-18T00:21:38.004Z,77
2023-04-18T00:24:10.617Z,77
2023-04-18T00:26:42.047Z,77
2023-04-18T00:29:13.821Z,76
2023-04-18T00:31:44.319Z,76
2023-04-18T00:34:15.312Z,76
2023-04-18T00:36:45.038Z,75
2023-04-18T00:39:15.895Z,76
2023-04-18T00:41:45.983Z,75
2023-04-18T00:44:15.156Z,75
2023-04-18T00:46:45.847Z,76
2023-04-18T00:49:16.644Z,76
2023-04-18T00:51:46.432Z,75
2023-04-18T00:54:17.425Z,75
2023-04-18T00:56:48.349Z,75
2023-04-18T00:59:18.875Z,75
2023-04-18T01:01:49.410Z,75
2023-04-18T01:04:20.506Z,75
2023-04-18T01:06:51.113Z,75
2023-04-18T01:09:22.425Z,75
2023-04-18T01:11:53.338Z,74
2023-04-18T01:14:24.053Z,74
2023-04-18T01:16:54.791Z,74
2023-04-18T01:19:25.914Z,74
2023-04-18T01:21:57.258Z,74
2023-04-18T01:24:28.078Z,74
2023-04-18T01:26:58.516Z,74
2023-04-18T01:29:28.977Z,74
2023-04-18T01:32:00.044Z,74
2023-04-18T01:34:31.443Z,74
2023-04-18T01:37:02.858Z,74
2023-04-18T01:39:33.755Z,73
2023-04-18T01:42:04.736Z,74
2023-04-18T01:44:36.564Z,74
2023-04-18T01:47:07.439Z,73
2023-04-18T01:49:38.349Z,73
2023-04-18T01:52:09.232Z,73
2023-04-18T01:54:39.963Z,73
2023-04-18T01:57:10.841Z,73
2023-04-18T01:59:41.362Z,73
2023-04-18T02:02:14.137Z,73
2023-04-18T02:04:45.056Z,73
2023-04-18T02:07:15.707Z,73
2023-04-18T02:09:46.283Z,73
2023-04-18T02:12:17.059Z,73
2023-04-18T02:14:47.470Z,73
2023-04-18T02:17:18.026Z,72
2023-04-18T02:19:49.129Z,73
2023-04-18T02:22:20.306Z,73
2023-04-18T02:24:50.408Z,73
2023-04-18T02:27:21.239Z,73
2023-04-18T02:29:52.105Z,73
2023-04-18T02:32:22.726Z,72
2023-04-18T02:34:53.131Z,72
2023-04-18T02:37:24.113Z,73
2023-04-18T02:39:54.224Z,72
2023-04-18T02:42:24.679Z,72
2023-04-18T02:44:55.733Z,71
2023-04-18T02:47:26.351Z,72
2023-04-18T02:49:56.615Z,72
2023-04-18T02:52:27.505Z,72
2023-04-18T02:54:58.808Z,72
2023-04-18T02:57:29.394Z,71
2023-04-18T02:59:59.980Z,71
2023-04-18T03:02:31.144Z,72
2023-04-18T03:05:02.433Z,71
2023-04-18T03:07:32.967Z,71
2023-04-18T03:10:05.174Z,71
2023-04-18T03:12:35.783Z,71
2023-04-18T03:15:06.329Z,71
2023-04-18T03:17:36.786Z,71
2023-04-18T03:20:07.370Z,71
2023-04-18T03:22:37.878Z,70
2023-04-18T03:25:08.854Z,71
2023-04-18T03:27:41.514Z,70
2023-04-18T03:30:11.589Z,71
2023-04-18T03:32:42.097Z,70
2023-04-18T03:35:12.751Z,71
2023-04-18T03:37:43.091Z,71
2023-04-18T03:40:13.675Z,70
2023-04-18T03:42:44.559Z,71
2023-04-18T03:45:15.305Z,71
2023-04-18T03:47:46.046Z,71
2023-04-18T03:50:16.537Z,71
2023-04-18T03:52:46.571Z,71
2023-04-18T03:55:17.108Z,71
2023-04-18T03:57:48.022Z,71
2023-04-18T04:00:19.486Z,71
2023-04-18T04:02:51.574Z,70
2023-04-18T04:05:22.052Z,70
2023-04-18T04:07:53.209Z,70
2023-04-18T04:10:24.391Z,70
2023-04-18T04:12:54.571Z,70
2023-04-18T04:15:25.174Z,70
2023-04-18T04:17:55.929Z,70
2023-04-18T04:20:26.642Z,70
2023-04-18T04:22:57.359Z,70
2023-04-18T04:25:28.158Z,69
2023-04-18T04:27:58.573Z,69
2023-04-18T04:30:29.316Z,70
2023-04-18T04:33:00.219Z,69
2023-04-18T04:35:30.726Z,69
2023-04-18T04:38:01.263Z,69
2023-04-18T04:40:32.343Z,69
2023-04-18T04:43:03.096Z,69
2023-04-18T04:45:33.438Z,69
2023-04-18T04:48:07.461Z,69
2023-04-18T04:50:38.030Z,69
2023-04-18T04:53:08.602Z,69
2023-04-18T04:55:38.868Z,69
2023-04-18T04:58:09.470Z,69
2023-04-18T05:00:39.954Z,69
2023-04-18T05:03:10.326Z,68
2023-04-18T05:05:40.414Z,68
2023-04-18T05:08:10.525Z,69
2023-04-18T05:10:41.492Z,68
2023-04-18T05:13:11.939Z,68
2023-04-18T05:15:42.146Z,68
2023-04-18T05:18:13.057Z,68
2023-04-18T05:20:43.696Z,68
2023-04-18T05:23:14.284Z,67
2023-04-18T05:25:45.335Z,68
2023-04-18T05:28:16.158Z,68
2023-04-18T05:30:47.117Z,68
2023-04-18T05:33:17.299Z,68
2023-04-18T05:35:48.564Z,67
2023-04-18T05:38:19.402Z,67
2023-04-18T05:40:50.346Z,68
2023-04-18T05:43:21.025Z,68
2023-04-18T05:45:51.717Z,67
2023-04-18T05:48:22.055Z,67
2023-04-18T05:50:52.685Z,67
2023-04-18T05:53:23.448Z,67
2023-04-18T05:55:56.368Z,67
2023-04-18T05:58:26.401Z,67
2023-04-18T06:00:57.638Z,67
2023-04-18T06:03:28.492Z,68
2023-04-18T06:05:58.501Z,67
2023-04-18T06:08:29.560Z,67
2023-04-18T06:10:59.929Z,66
2023-04-18T06:13:31.015Z,67
2023-04-18T06:16:01.247Z,67
2023-04-18T06:18:31.699Z,67
2023-04-18T06:21:02.688Z,67
2023-04-18T06:23:33.511Z,67
2023-04-18T06:26:03.619Z,68
2023-04-18T06:28:35.083Z,68
2023-04-18T06:31:06.109Z,68
2023-04-18T06:33:34.477Z,68
2023-04-18T06:36:05.049Z,67
2023-04-18T06:38:35.484Z,67
2023-04-18T06:41:05.988Z,67
2023-04-18T06:43:36.673Z,66
2023-04-18T06:46:06.697Z,66
2023-04-18T06:48:37.636Z,67
2023-04-18T06:51:08.601Z,67
2023-04-18T06:53:39.016Z,66
2023-04-18T06:56:09.550Z,66
2023-04-18T06:58:39.949Z,67
2023-04-18T07:01:10.350Z,66
2023-04-18T07:03:40.683Z,66
2023-04-18T07:06:11.585Z,66
2023-04-18T07:08:42.116Z,66
2023-04-18T07:11:12.949Z,66
2023-04-18T07:13:43.702Z,65
2023-04-18T07:16:14.103Z,66
2023-04-18T07:18:44.457Z,66
2023-04-18T07:21:17.812Z,66
2023-04-18T07:23:47.873Z,66
2023-04-18T07:26:18.375Z,65
2023-04-18T07:28:48.745Z,65
2023-04-18T07:31:19.052Z,65
2023-04-18T07:33:49.591Z,65
2023-04-18T07:36:19.941Z,64
2023-04-18T07:38:50.179Z,64
2023-04-18T07:41:20.535Z,64
2023-04-18T07:43:51.595Z,64
2023-04-18T07:46:22.232Z,64
2023-04-18T07:48:52.523Z,64
2023-04-18T07:51:23.102Z,64
2023-04-18T07:53:53.481Z,64
2023-04-18T07:56:23.729Z,64
2023-04-18T07:58:52.749Z,64
2023-04-18T08:01:23.577Z,64
2023-04-18T08:03:54.348Z,63
2023-04-18T08:06:24.532Z,63
2023-04-18T08:08:55.181Z,63
2023-04-18T08:11:25.459Z,63
2023-04-18T08:13:56.023Z,63
2023-04-18T08:16:26.597Z,63
2023-04-18T08:18:55.765Z,63
2023-04-18T08:21:26.344Z,63
2023-04-18T08:23:56.328Z,63
2023-04-18T08:26:26.989Z,62
2023-04-18T08:28:57.631Z,62
2023-04-18T08:31:28.368Z,62
2023-04-18T08:33:58.724Z,62
2023-04-18T08:36:29.241Z,62
2023-04-18T08:38:59.803Z,62
2023-04-18T08:41:30.262Z,63
2023-04-18T08:44:01.201Z,62
2023-04-18T08:46:31.832Z,63
2023-04-18T08:49:02.088Z,62
2023-04-18T08:51:32.639Z,62
2023-04-18T08:54:02.995Z,62
2023-04-18T08:56:33.315Z,62
2023-04-18T08:59:03.650Z,61
2023-04-18T09:01:34.028Z,62
2023-04-18T09:04:04.311Z,62
2023-04-18T09:06:34.460Z,62
2023-04-18T09:09:04.799Z,62
2023-04-18T09:11:34.019Z,62
2023-04-18T09:14:04.265Z,62
2023-04-18T09:16:34.945Z,63
2023-04-18T09:19:08.604Z,62
2023-04-18T09:21:39.132Z,62
2023-04-18T09:24:10.415Z,62
2023-04-18T09:26:40.490Z,62
2023-04-18T09:29:09.210Z,62
2023-04-18T09:31:39.324Z,62
2023-04-18T09:34:09.289Z,61
2023-04-18T09:36:39.566Z,62
2023-04-18T09:39:10.696Z,61
2023-04-18T09:41:43.278Z,61
2023-04-18T09:44:15.203Z,61
2023-04-18T09:46:46.804Z,61
2023-04-18T09:49:15.281Z,61
2023-04-18T09:51:45.265Z,60
2023-04-18T09:54:15.318Z,59
2023-04-18T09:56:45.436Z,60
2023-04-18T09:59:15.920Z,59
2023-04-18T10:01:46.231Z,59
2023-04-18T10:04:16.662Z,60
2023-04-18T10:06:46.534Z,59
2023-04-18T10:09:17.014Z,60
2023-04-18T10:11:47.102Z,60
2023-04-18T10:14:17.479Z,60
2023-04-18T10:16:48.603Z,59
2023-04-18T10:19:17.771Z,59
2023-04-18T10:21:48.081Z,58
2023-04-18T10:24:19.333Z,58
2023-04-18T10:26:49.450Z,59
2023-04-18T10:29:19.915Z,59
2023-04-18T10:31:50.588Z,58
2023-04-18T10:34:21.207Z,57
2023-04-18T10:36:51.772Z,57
2023-04-18T10:39:22.699Z,57
2023-04-18T10:41:53.101Z,57
2023-04-18T10:44:24.101Z,58
2023-04-18T10:46:54.236Z,58
2023-04-18T10:49:26.041Z,57
2023-04-18T10:51:53.685Z,58
2023-04-18T10:54:22.398Z,58
2023-04-18T10:56:53.158Z,59
2023-04-18T10:59:23.945Z,58
2023-04-18T11:01:54.241Z,58
2023-04-18T11:04:24.713Z,57
2023-04-18T11:06:55.568Z,58
2023-04-18T11:09:24.564Z,58
2023-04-18T11:11:55.196Z,58
2023-04-18T11:14:26.004Z,57
2023-04-18T11:16:56.070Z,57
2023-04-18T11:19:26.604Z,57
2023-04-18T11:21:56.992Z,57
2023-04-18T11:24:27.541Z,58
2023-04-18T11:26:57.811Z,57
2023-04-18T11:29:28.118Z,58
2023-04-18T11:31:58.923Z,58
2023-04-18T11:34:28.719Z,57
2023-04-18T11:36:59.255Z,58
2023-04-18T11:39:30.117Z,58
2023-04-18T11:42:00.491Z,58
2023-04-18T11:44:31.277Z,58
2023-04-18T11:47:01.823Z,57
2023-04-18T11:49:32.406Z,58
2023-04-18T11:52:02.684Z,58
2023-04-18T11:54:32.976Z,58
2023-04-18T11:57:03.720Z,58
2023-04-18T11:59:33.839Z,57
2023-04-18T12:02:15.182Z,58
2023-04-18T12:04:35.055Z,57
2023-04-18T12:07:05.126Z,58
2023-04-18T12:09:35.443Z,58
2023-04-18T12:12:05.706Z,58
2023-04-18T12:14:38.708Z,58
2023-04-18T12:17:09.001Z,58
2023-04-18T12:19:39.121Z,58
2023-04-18T12:22:09.764Z,57
2023-04-18T12:24:40.023Z,58
2023-04-18T12:27:10.398Z,58
2023-04-18T12:29:40.532Z,58
2023-04-18T12:32:11.253Z,58
2023-04-18T12:34:41.631Z,58
2023-04-18T12:37:12.069Z,58
2023-04-18T12:39:42.884Z,57
2023-04-18T12:42:11.842Z,57
2023-04-18T12:44:42.027Z,57
2023-04-18T12:47:12.779Z,57
2023-04-18T12:49:43.059Z,57
2023-04-18T12:52:13.561Z,57
2023-04-18T12:54:43.718Z,57
2023-04-18T12:57:14.541Z,57
2023-04-18T12:59:44.950Z,57
2023-04-18T13:02:15.490Z,56
2023-04-18T13:04:46.379Z,57
2023-04-18T13:07:17.130Z,57
2023-04-18T13:09:50.112Z,56
2023-04-18T13:12:20.702Z,56
2023-04-18T13:14:51.366Z,55
2023-04-18T13:17:22.076Z,55
2023-04-18T13:19:51.939Z,55
2023-04-18T13:22:22.309Z,55
2023-04-18T13:24:53.468Z,55
2023-04-18T13:27:24.256Z,55
2023-04-18T13:29:55.432Z,54
2023-04-18T13:32:25.847Z,54
2023-04-18T13:34:55.925Z,54
2023-04-18T13:37:26.937Z,55
2023-04-18T13:39:57.676Z,56
2023-04-18T13:42:28.364Z,55
2023-04-18T13:44:58.666Z,55
2023-04-18T13:47:29.065Z,56
2023-04-18T13:49:59.596Z,55
2023-04-18T13:52:30.124Z,56
2023-04-18T13:55:00.499Z,56
2023-04-18T13:57:31.267Z,56
2023-04-18T14:00:01.919Z,56
2023-04-18T14:02:31.917Z,56
2023-04-18T14:05:02.897Z,56
2023-04-18T14:07:33.555Z,56
2023-04-18T14:10:04.330Z,55
2023-04-18T14:12:34.616Z,56
2023-04-18T14:15:05.440Z,55
2023-04-18T14:17:35.688Z,56
2023-04-18T14:20:06.040Z,56
2023-04-18T14:22:36.545Z,56
2023-04-18T14:25:07.278Z,56
2023-04-18T14:27:37.655Z,56
2023-04-18T14:30:08.067Z,56
2023-04-18T14:32:38.476Z,56
2023-04-18T14:35:08.833Z,56
2023-04-18T14:37:39.255Z,56
2023-04-18T14:40:09.837Z,57
2023-04-18T14:42:40.487Z,57
2023-04-18T14:45:10.831Z,56
2023-04-18T14:47:41.787Z,56
2023-04-18T14:50:12.654Z,56
2023-04-18T14:52:42.921Z,57
2023-04-18T14:55:13.121Z,57
2023-04-18T14:57:47.450Z,57
2023-04-18T15:00:17.700Z,57
2023-04-18T15:02:48.965Z,57
2023-04-18T15:05:19.702Z,57
2023-04-18T15:07:49.929Z,57
2023-04-18T15:10:20.909Z,58
2023-04-18T15:12:52.301Z,57
2023-04-18T15:15:23.167Z,57
2023-04-18T15:17:53.503Z,57
2023-04-18T15:20:24.190Z,57
2023-04-18T15:22:54.212Z,57
2023-04-18T15:25:24.696Z,56
2023-04-18T15:27:58.652Z,56
2023-04-18T15:30:29.254Z,57
2023-04-18T15:32:59.584Z,57
2023-04-18T15:35:28.420Z,57
2023-04-18T15:37:58.630Z,57
2023-04-18T15:40:28.970Z,56
2023-04-18T15:43:01.348Z,57
2023-04-18T15:45:31.614Z,57
2023-04-18T15:48:01.827Z,57
2023-04-18T15:50:33.671Z,57
2023-04-18T15:53:02.508Z,58
2023-04-18T15:55:33.193Z,58
2023-04-18T15:58:04.062Z,57
2023-04-18T16:00:34.833Z,57
2023-04-18T16:03:04.863Z,57
2023-04-18T16:05:35.733Z,57
2023-04-18T16:08:05.815Z,57
2023-04-18T16:10:34.555Z,57
2023-04-18T16:13:05.177Z,58
2023-04-18T16:15:35.822Z,58
2023-04-18T16:18:07.376Z,58
2023-04-18T16:20:37.628Z,58
2023-04-18T16:23:07.872Z,58
2023-04-18T16:25:42.227Z,58
2023-04-18T16:28:12.391Z,58
2023-04-18T16:30:43.293Z,59
2023-04-18T16:33:14.557Z,59
2023-04-18T16:35:44.728Z,59
2023-04-18T16:38:17.563Z,60
2023-04-18T16:40:50.444Z,59
2023-04-18T16:43:21.041Z,60
2023-04-18T16:45:53.888Z,60
2023-04-18T16:48:24.030Z,60
2023-04-18T16:50:55.181Z,60
2023-04-18T16:56:02.108Z,61
2023-04-18T16:58:32.329Z,61
2023-04-18T17:01:02.944Z,61
2023-04-18T17:03:35.329Z,61
2023-04-18T17:06:09.564Z,61
2023-04-18T17:08:41.659Z,61
2023-04-18T17:11:21.039Z,61
2023-04-18T17:13:51.409Z,62
2023-04-18T17:16:21.741Z,61
2023-04-18T17:18:51.888Z,61
2023-04-18T17:21:22.182Z,62
2023-04-18T17:23:52.261Z,62
2023-04-18T17:26:23.773Z,62
2023-04-18T17:28:54.310Z,62
2023-04-18T17:31:26.206Z,62
2023-04-18T17:33:57.009Z,62
2023-04-18T17:36:28.306Z,63
2023-04-18T17:38:58.483Z,63
2023-04-18T17:41:31.635Z,63
2023-04-18T17:44:02.637Z,63
2023-04-18T17:46:33.255Z,64
2023-04-18T17:49:03.259Z,63
2023-04-18T17:51:33.687Z,63
2023-04-18T17:54:04.112Z,64
2023-04-18T17:56:35.084Z,64
2023-04-18T17:59:09.926Z,64
2023-04-18T18:01:49.199Z,64
2023-04-18T18:04:19.805Z,64
2023-04-18T18:06:53.294Z,64
2023-04-18T18:09:25.269Z,64
2023-04-18T18:11:56.191Z,65
2023-04-18T18:14:26.372Z,65
2023-04-18T18:16:59.175Z,64
2023-04-18T18:19:29.727Z,65
2023-04-18T18:22:03.458Z,65
2023-04-18T18:24:42.821Z,65
2023-04-18T18:27:12.833Z,65
2023-04-18T18:29:42.824Z,65
2023-04-18T18:32:13.495Z,65
2023-04-18T18:34:43.741Z,65
2023-04-18T18:37:15.303Z,65
2023-04-18T18:39:45.878Z,66
2023-04-18T18:42:20.006Z,66
2023-04-18T18:44:51.431Z,66
2023-04-18T18:47:23.091Z,66
2023-04-18T18:49:54.861Z,66
2023-04-18T18:52:25.163Z,66
2023-04-18T18:54:55.210Z,66
2023-04-18T18:57:25.703Z,66
2023-04-18T18:59:56.257Z,67
2023-04-18T19:05:01.658Z,67
2023-04-18T19:07:31.408Z,68
2023-04-18T19:10:01.347Z,68
2023-04-18T19:12:31.548Z,68
2023-04-18T19:15:03.850Z,68
2023-04-18T19:17:36.362Z,68
2023-04-18T19:20:08.714Z,68
2023-04-18T19:22:48.038Z,68
2023-04-18T19:25:18.415Z,68
2023-04-18T19:27:49.073Z,68
2023-04-18T19:30:22.372Z,69
2023-04-18T19:32:52.838Z,69
2023-04-18T19:35:23.041Z,69
2023-04-18T19:37:53.290Z,69
2023-04-18T19:40:23.555Z,69
2023-04-18T19:45:30.508Z,70
2023-04-18T19:48:00.889Z,70
2023-04-18T19:50:31.954Z,70
2023-04-18T19:53:02.147Z,71
2023-04-18T19:55:33.351Z,70
2023-04-18T19:58:05.049Z,71
2023-04-18T20:00:36.713Z,71
2023-04-18T20:03:07.801Z,71
2023-04-18T20:05:40.908Z,71
2023-04-18T20:08:10.937Z,71
2023-04-18T20:10:41.390Z,71
2023-04-18T20:13:12.825Z,71
2023-04-18T20:15:55.247Z,72
2023-04-18T20:18:27.390Z,72
2023-04-18T20:20:57.867Z,71
2023-04-18T20:23:28.079Z,71
2023-04-18T20:25:59.523Z,71
2023-04-18T20:28:30.114Z,71
2023-04-18T20:31:02.512Z,71
2023-04-18T20:33:35.661Z,71
2023-04-18T20:36:08.830Z,70
2023-04-18T20:38:41.906Z,70
2023-04-18T20:41:16.487Z,69
2023-04-18T20:43:48.577Z,69
2023-04-18T20:46:28.150Z,69
2023-04-18T20:49:06.729Z,69
2023-04-18T20:51:37.190Z,69
2023-04-18T20:54:10.558Z,69
2023-04-18T20:56:41.084Z,68
2023-04-18T20:59:11.567Z,68
2023-04-18T21:01:43.479Z,68
2023-04-18T21:04:14.094Z,68
2023-04-18T21:06:44.077Z,68
2023-04-18T21:09:17.550Z,68
2023-04-18T21:11:48.133Z,68
2023-04-18T21:14:19.500Z,68
2023-04-18T21:16:51.648Z,68
2023-04-18T21:19:28.318Z,69
2023-04-18T21:22:02.280Z,69
2023-04-18T21:24:33.494Z,69
2023-04-18T21:27:04.026Z,69
2023-04-18T21:29:34.915Z,69
2023-04-18T21:32:05.358Z,69
2023-04-18T21:34:36.394Z,69
2023-04-18T21:37:05.867Z,69
2023-04-18T21:39:35.815Z,69
2023-04-18T21:42:06.564Z,69
2023-04-18T21:44:37.911Z,69
2023-04-18T21:47:17.079Z,69
2023-04-18T21:49:49.815Z,69
2023-04-18T21:52:20.604Z,69
2023-04-18T21:54:51.619Z,69
2023-04-18T21:57:22.215Z,69
2023-04-18T21:59:52.604Z,69
2023-04-18T22:02:31.884Z,70
2023-04-18T22:05:00.189Z,70
2023-04-18T22:07:34.225Z,70
2023-04-18T22:10:07.229Z,70
2023-04-18T22:12:38.935Z,70
2023-04-18T22:15:12.326Z,70
2023-04-18T22:17:43.134Z,70
2023-04-18T22:20:13.874Z,70
2023-04-18T22:22:44.806Z,71
2023-04-18T22:25:20.909Z,72
2023-04-18T22:28:05.838Z,72
2023-04-18T22:30:45.525Z,72
2023-04-18T22:33:16.398Z,72
2023-04-18T22:35:49.657Z,71
2023-04-18T22:38:21.623Z,71
2023-04-18T22:40:52.246Z,71
2023-04-18T22:43:22.989Z,71
2023-04-18T22:45:58.481Z,72
2023-04-18T22:48:33.837Z,73
2023-04-18T22:51:06.237Z,73
2023-04-18T22:53:39.300Z,74
2023-04-18T22:56:14.756Z,74
2023-04-18T22:58:48.075Z,75
2023-04-18T23:01:19.146Z,75
2023-04-18T23:03:53.635Z,75
2023-04-18T23:06:24.468Z,75
2023-04-18T23:08:56.098Z,76
2023-04-18T23:11:28.073Z,75
2023-04-18T23:13:58.897Z,75
2023-04-18T23:16:31.371Z,75
2023-04-18T23:19:05.864Z,75
2023-04-18T23:21:36.218Z,75
2023-04-18T23:24:07.199Z,74
2023-04-18T23:26:37.624Z,74
2023-04-18T23:29:08.216Z,74
2023-04-18T23:31:39.294Z,74
2023-04-18T23:34:09.777Z,75
2023-04-18T23:36:41.836Z,75
2023-04-18T23:39:15.045Z,75
2023-04-18T23:41:45.557Z,75
2023-04-18T23:44:16.251Z,75
2023-04-18T23:46:47.494Z,75
2023-04-18T23:49:18.777Z,75
2023-04-18T23:51:49.451Z,75
2023-04-18T23:54:20.326Z,75
2023-04-18T23:56:51.087Z,75
2023-04-18T23:59:22.115Z,75
